Cincinnati, OH

11:36 AM EDT on May 25, 2017 (GMT -0400)
Norwood | | Change Station

Elev 620 ft 39.15 °N, 84.45 °W | Updated 30 seconds ago

Overcast
Overcast
65.9 °F
Feels Like 65.9 °F
N
1.0
Wind Variable Wind from SW

Today
High -- | Low -- °F
--% Chance of Precip.
Yesterday
High -- | Low -- °F
Precip. -- in
Pressure 29.44 in
Visibility 7.0 miles
Clouds Mostly Cloudy 900 ft
Mostly Cloudy 2200 ft
Overcast 2900 ft
Dew Point 59 °F
Humidity 81%
Rainfall 0.56 in
Snow Depth Not available.
6:16 AM 8:53 PM
Waning Crescent, 0% visible
METAR KLUK 251453Z 32004KT 7SM BKN009 BKN022 OVC029 16/14 A2944 RMK AO2 RAE1354B24E33 SLP968 P0000 60013 T01610144 53009
Pressure 29.44 in
Visibility 7.0 miles
Clouds Mostly Cloudy 900 ft
Mostly Cloudy 2200 ft
Overcast 2900 ft
Dew Point 59 °F
Humidity 81%
Rainfall 0.56 in
Snow Depth Not available.
6:16 AM 8:53 PM
Waning Crescent, 0% visible
METAR KLUK 251453Z 32004KT 7SM BKN009 BKN022 OVC029 16/14 A2944 RMK AO2 RAE1354B24E33 SLP968 P0000 60013 T01610144 53009

Get Your Daily Forecast Email!

Thanks for signing up!

Be on the lookout for a verification email in your inbox.

You'll start receiving severe weather alerts in your inbox..

×

10-Day Weather Forecast

Almanac

Astronomy

May. 25, 2017 Rise Set
Actual Time
Civil Twilight
Nautical Twilight
Astronomical Twilight
Moon
Length of Visible Light
Length of Day
Tomorrow will be .
, % of the Moon is Illuminated

Today's Extremes

State Highs State Lows

Community

WunderPhotos

Category 6

Welcome to Category 6. This is the collective home for Weather Underground's featured writeups by Dr. Jeff Masters (right), Bob Henson (left), Chris Burt, and other regular contributors.

Nearby

Air Quality

  Air Quality AQ Index Pollutant
Not available.

Snow Depth

Station Depth Elevation

Earthquake Activity

City Distance Mag. Time & Date
Minimum magnitude displayed is 2.5.

Coastal Water Temperatures

Place Temperature

Stations

Nearby Weather Stations

Station Location Temp. Windchill Dew Point Humidity Wind Precip. Elev Updated Type
                   

Watches & Warnings

Flood Watch / Flood Statement
Issued: 11:32 AM EDT May. 25, 2017 – National Weather Service

... Flash Flood Watch is cancelled...

The Flash Flood Watch for portions of Indiana, northern Kentucky,
and southwest Ohio has been cancelled. Although some light rain is
still possible today, the heavy rain has ended across this area allowing
the Flash Flood Watch to be cancelled.